sensor_id;sensor_type;location;lat;lon;timestamp;P1;durP1;ratioP1;P2;durP2;ratioP2
57325;SDS011;43161;50.950;18.224;2022-11-15T00:00:08;72.10;;;33.00;;
57325;SDS011;43161;50.950;18.224;2022-11-15T00:02:35;76.70;;;35.80;;
57325;SDS011;43161;50.950;18.224;2022-11-15T00:05:00;74.40;;;37.60;;
57325;SDS011;43161;50.950;18.224;2022-11-15T00:07:26;72.20;;;35.30;;
57325;SDS011;43161;50.950;18.224;2022-11-15T00:09:51;74.90;;;35.70;;
57325;SDS011;43161;50.950;18.224;2022-11-15T00:12:17;70.30;;;35.10;;
57325;SDS011;43161;50.950;18.224;2022-11-15T00:14:42;70.40;;;30.60;;
57325;SDS011;43161;50.950;18.224;2022-11-15T00:17:08;66.40;;;31.70;;
57325;SDS011;43161;50.950;18.224;2022-11-15T00:19:33;70.00;;;29.40;;
57325;SDS011;43161;50.950;18.224;2022-11-15T00:22:00;68.70;;;30.80;;
57325;SDS011;43161;50.950;18.224;2022-11-15T00:24:25;60.80;;;26.20;;
57325;SDS011;43161;50.950;18.224;2022-11-15T00:26:51;62.80;;;25.50;;
57325;SDS011;43161;50.950;18.224;2022-11-15T00:29:16;57.40;;;25.10;;
57325;SDS011;43161;50.950;18.224;2022-11-15T00:31:42;58.90;;;26.10;;
57325;SDS011;43161;50.950;18.224;2022-11-15T00:34:09;58.20;;;26.60;;
57325;SDS011;43161;50.950;18.224;2022-11-15T00:36:36;61.10;;;26.60;;
57325;SDS011;43161;50.950;18.224;2022-11-15T00:39:03;62.10;;;28.70;;
57325;SDS011;43161;50.950;18.224;2022-11-15T00:41:31;61.80;;;29.40;;
57325;SDS011;43161;50.950;18.224;2022-11-15T00:43:56;68.00;;;29.00;;
57325;SDS011;43161;50.950;18.224;2022-11-15T00:46:22;62.20;;;26.10;;
57325;SDS011;43161;50.950;18.224;2022-11-15T00:48:48;59.50;;;24.90;;
57325;SDS011;43161;50.950;18.224;2022-11-15T00:51:13;59.00;;;24.60;;
57325;SDS011;43161;50.950;18.224;2022-11-15T00:53:39;56.20;;;23.70;;
57325;SDS011;43161;50.950;18.224;2022-11-15T00:56:05;60.60;;;26.20;;
57325;SDS011;43161;50.950;18.224;2022-11-15T00:58:31;56.40;;;24.70;;
57325;SDS011;43161;50.950;18.224;2022-11-15T01:01:04;55.30;;;23.60;;
57325;SDS011;43161;50.950;18.224;2022-11-15T01:03:40;54.60;;;24.80;;
57325;SDS011;43161;50.950;18.224;2022-11-15T01:06:07;62.10;;;26.40;;
57325;SDS011;43161;50.950;18.224;2022-11-15T01:08:33;65.00;;;27.60;;
57325;SDS011;43161;50.950;18.224;2022-11-15T01:11:02;66.50;;;27.00;;
57325;SDS011;43161;50.950;18.224;2022-11-15T01:13:30;64.60;;;29.10;;
57325;SDS011;43161;50.950;18.224;2022-11-15T01:15:57;76.30;;;33.70;;
57325;SDS011;43161;50.950;18.224;2022-11-15T01:18:23;79.80;;;32.80;;
57325;SDS011;43161;50.950;18.224;2022-11-15T01:20:48;68.80;;;29.00;;
57325;SDS011;43161;50.950;18.224;2022-11-15T01:23:14;69.90;;;28.50;;
57325;SDS011;43161;50.950;18.224;2022-11-15T01:25:40;66.60;;;29.40;;
57325;SDS011;43161;50.950;18.224;2022-11-15T01:28:05;66.40;;;29.90;;
57325;SDS011;43161;50.950;18.224;2022-11-15T01:30:31;66.30;;;29.60;;
57325;SDS011;43161;50.950;18.224;2022-11-15T01:32:57;72.40;;;28.70;;
57325;SDS011;43161;50.950;18.224;2022-11-15T01:35:22;60.80;;;27.50;;
57325;SDS011;43161;50.950;18.224;2022-11-15T01:37:48;71.10;;;29.30;;
57325;SDS011;43161;50.950;18.224;2022-11-15T01:40:14;67.00;;;28.70;;
57325;SDS011;43161;50.950;18.224;2022-11-15T01:42:40;73.20;;;31.50;;
57325;SDS011;43161;50.950;18.224;2022-11-15T01:45:05;68.80;;;31.70;;
57325;SDS011;43161;50.950;18.224;2022-11-15T01:47:34;69.30;;;31.20;;
57325;SDS011;43161;50.950;18.224;2022-11-15T01:50:08;69.00;;;29.90;;
57325;SDS011;43161;50.950;18.224;2022-11-15T01:55:05;71.10;;;34.00;;
57325;SDS011;43161;50.950;18.224;2022-11-15T01:57:31;66.80;;;31.70;;
57325;SDS011;43161;50.950;18.224;2022-11-15T01:59:57;68.00;;;35.90;;
57325;SDS011;43161;50.950;18.224;2022-11-15T02:02:23;69.30;;;35.40;;
57325;SDS011;43161;50.950;18.224;2022-11-15T02:04:49;62.90;;;29.30;;
57325;SDS011;43161;50.950;18.224;2022-11-15T02:07:16;64.00;;;30.80;;
57325;SDS011;43161;50.950;18.224;2022-11-15T02:09:43;63.20;;;28.20;;
57325;SDS011;43161;50.950;18.224;2022-11-15T02:12:09;61.90;;;28.00;;
57325;SDS011;43161;50.950;18.224;2022-11-15T02:14:37;61.20;;;27.80;;
57325;SDS011;43161;50.950;18.224;2022-11-15T02:32:56;59.00;;;27.00;;
57325;SDS011;43161;50.950;18.224;2022-11-15T02:35:59;60.90;;;28.50;;
57325;SDS011;43161;50.950;18.224;2022-11-15T02:41:14;62.50;;;28.70;;
57325;SDS011;43161;50.950;18.224;2022-11-15T02:46:39;65.20;;;27.70;;
57325;SDS011;43161;50.950;18.224;2022-11-15T02:49:27;60.20;;;28.60;;
57325;SDS011;43161;50.950;18.224;2022-11-15T02:51:54;70.30;;;30.60;;
57325;SDS011;43161;50.950;18.224;2022-11-15T02:54:22;66.30;;;28.70;;
57325;SDS011;43161;50.950;18.224;2022-11-15T02:56:49;65.00;;;29.00;;
57325;SDS011;43161;50.950;18.224;2022-11-15T03:05:07;62.20;;;27.60;;
57325;SDS011;43161;50.950;18.224;2022-11-15T03:07:44;62.10;;;26.40;;
57325;SDS011;43161;50.950;18.224;2022-11-15T03:10:14;59.40;;;26.30;;
57325;SDS011;43161;50.950;18.224;2022-11-15T03:15:53;59.00;;;26.00;;
57325;SDS011;43161;50.950;18.224;2022-11-15T03:18:31;52.50;;;24.00;;
57325;SDS011;43161;50.950;18.224;2022-11-15T03:21:00;56.00;;;25.30;;
57325;SDS011;43161;50.950;18.224;2022-11-15T03:23:28;56.10;;;24.80;;
57325;SDS011;43161;50.950;18.224;2022-11-15T03:25:55;54.00;;;24.00;;
57325;SDS011;43161;50.950;18.224;2022-11-15T03:28:27;54.00;;;24.40;;
57325;SDS011;43161;50.950;18.224;2022-11-15T03:31:02;46.30;;;21.80;;
57325;SDS011;43161;50.950;18.224;2022-11-15T03:33:49;48.10;;;22.00;;
57325;SDS011;43161;50.950;18.224;2022-11-15T03:36:16;49.30;;;23.30;;
57325;SDS011;43161;50.950;18.224;2022-11-15T03:38:42;56.50;;;25.20;;
57325;SDS011;43161;50.950;18.224;2022-11-15T03:41:11;58.50;;;26.30;;
57325;SDS011;43161;50.950;18.224;2022-11-15T03:43:53;55.10;;;25.60;;
57325;SDS011;43161;50.950;18.224;2022-11-15T03:46:32;59.40;;;27.40;;
57325;SDS011;43161;50.950;18.224;2022-11-15T03:49:07;60.20;;;27.70;;
57325;SDS011;43161;50.950;18.224;2022-11-15T03:51:35;61.80;;;27.10;;
57325;SDS011;43161;50.950;18.224;2022-11-15T03:54:04;63.20;;;27.90;;
57325;SDS011;43161;50.950;18.224;2022-11-15T03:56:30;72.40;;;30.10;;
57325;SDS011;43161;50.950;18.224;2022-11-15T03:58:56;74.40;;;35.50;;
57325;SDS011;43161;50.950;18.224;2022-11-15T04:01:22;63.20;;;28.50;;
57325;SDS011;43161;50.950;18.224;2022-11-15T04:03:48;64.80;;;28.80;;
57325;SDS011;43161;50.950;18.224;2022-11-15T04:06:13;60.90;;;27.90;;
57325;SDS011;43161;50.950;18.224;2022-11-15T04:08:39;71.50;;;31.40;;
57325;SDS011;43161;50.950;18.224;2022-11-15T04:11:05;71.90;;;32.60;;
57325;SDS011;43161;50.950;18.224;2022-11-15T04:13:30;79.60;;;38.40;;
57325;SDS011;43161;50.950;18.224;2022-11-15T04:15:57;76.50;;;38.60;;
57325;SDS011;43161;50.950;18.224;2022-11-15T04:18:23;72.80;;;38.20;;
57325;SDS011;43161;50.950;18.224;2022-11-15T04:20:49;66.10;;;31.60;;
57325;SDS011;43161;50.950;18.224;2022-11-15T04:23:33;65.10;;;31.00;;
57325;SDS011;43161;50.950;18.224;2022-11-15T04:26:18;61.80;;;26.00;;
57325;SDS011;43161;50.950;18.224;2022-11-15T04:28:45;58.70;;;27.00;;
57325;SDS011;43161;50.950;18.224;2022-11-15T04:31:29;57.70;;;27.50;;
57325;SDS011;43161;50.950;18.224;2022-11-15T04:33:55;57.00;;;28.80;;
57325;SDS011;43161;50.950;18.224;2022-11-15T04:36:21;58.20;;;26.70;;
57325;SDS011;43161;50.950;18.224;2022-11-15T04:41:31;62.50;;;30.50;;
57325;SDS011;43161;50.950;18.224;2022-11-15T04:43:56;63.90;;;31.50;;
57325;SDS011;43161;50.950;18.224;2022-11-15T04:46:22;64.70;;;29.00;;
57325;SDS011;43161;50.950;18.224;2022-11-15T04:48:49;62.80;;;27.70;;
57325;SDS011;43161;50.950;18.224;2022-11-15T04:51:15;61.10;;;28.00;;
57325;SDS011;43161;50.950;18.224;2022-11-15T04:53:41;63.10;;;28.90;;
57325;SDS011;43161;50.950;18.224;2022-11-15T04:56:06;63.20;;;25.90;;
57325;SDS011;43161;50.950;18.224;2022-11-15T04:58:32;61.80;;;26.80;;
57325;SDS011;43161;50.950;18.224;2022-11-15T05:00:58;62.50;;;27.30;;
57325;SDS011;43161;50.950;18.224;2022-11-15T05:03:23;67.70;;;26.50;;
57325;SDS011;43161;50.950;18.224;2022-11-15T05:06:08;58.90;;;26.20;;
57325;SDS011;43161;50.950;18.224;2022-11-15T05:08:33;65.70;;;28.00;;
57325;SDS011;43161;50.950;18.224;2022-11-15T05:10:59;62.50;;;28.40;;
57325;SDS011;43161;50.950;18.224;2022-11-15T05:13:25;68.30;;;29.60;;
57325;SDS011;43161;50.950;18.224;2022-11-15T05:15:51;64.80;;;29.20;;
57325;SDS011;43161;50.950;18.224;2022-11-15T05:18:17;65.30;;;29.50;;
57325;SDS011;43161;50.950;18.224;2022-11-15T05:20:42;63.60;;;29.40;;
57325;SDS011;43161;50.950;18.224;2022-11-15T05:23:08;66.80;;;28.60;;
57325;SDS011;43161;50.950;18.224;2022-11-15T05:25:35;63.00;;;28.20;;
57325;SDS011;43161;50.950;18.224;2022-11-15T05:28:01;61.90;;;26.20;;
57325;SDS011;43161;50.950;18.224;2022-11-15T05:30:26;60.50;;;25.80;;
57325;SDS011;43161;50.950;18.224;2022-11-15T05:32:52;60.10;;;28.10;;
57325;SDS011;43161;50.950;18.224;2022-11-15T05:35:20;67.50;;;30.50;;
57325;SDS011;43161;50.950;18.224;2022-11-15T05:37:51;59.00;;;27.80;;
57325;SDS011;43161;50.950;18.224;2022-11-15T05:40:16;64.90;;;27.70;;
57325;SDS011;43161;50.950;18.224;2022-11-15T05:42:42;63.00;;;29.70;;
57325;SDS011;43161;50.950;18.224;2022-11-15T05:45:08;58.50;;;27.90;;
57325;SDS011;43161;50.950;18.224;2022-11-15T05:47:34;63.50;;;27.30;;
57325;SDS011;43161;50.950;18.224;2022-11-15T05:50:01;54.70;;;26.20;;
57325;SDS011;43161;50.950;18.224;2022-11-15T05:52:28;51.30;;;22.90;;
57325;SDS011;43161;50.950;18.224;2022-11-15T05:54:55;49.30;;;23.10;;
57325;SDS011;43161;50.950;18.224;2022-11-15T05:57:22;59.20;;;26.80;;
57325;SDS011;43161;50.950;18.224;2022-11-15T05:59:47;58.80;;;27.30;;
57325;SDS011;43161;50.950;18.224;2022-11-15T06:02:13;59.60;;;26.30;;
57325;SDS011;43161;50.950;18.224;2022-11-15T06:04:38;60.40;;;29.00;;
57325;SDS011;43161;50.950;18.224;2022-11-15T06:07:04;61.60;;;29.80;;
57325;SDS011;43161;50.950;18.224;2022-11-15T06:09:29;63.00;;;28.20;;
57325;SDS011;43161;50.950;18.224;2022-11-15T06:11:55;61.40;;;27.70;;
57325;SDS011;43161;50.950;18.224;2022-11-15T06:14:20;56.70;;;25.40;;
57325;SDS011;43161;50.950;18.224;2022-11-15T06:16:47;54.90;;;24.60;;
57325;SDS011;43161;50.950;18.224;2022-11-15T06:19:13;66.00;;;26.40;;
57325;SDS011;43161;50.950;18.224;2022-11-15T06:21:38;68.20;;;25.50;;
57325;SDS011;43161;50.950;18.224;2022-11-15T06:24:04;58.00;;;24.70;;
57325;SDS011;43161;50.950;18.224;2022-11-15T06:26:31;60.00;;;27.80;;
57325;SDS011;43161;50.950;18.224;2022-11-15T06:28:56;58.80;;;27.60;;
57325;SDS011;43161;50.950;18.224;2022-11-15T06:31:22;87.20;;;31.80;;
57325;SDS011;43161;50.950;18.224;2022-11-15T06:33:48;126.20;;;39.60;;
57325;SDS011;43161;50.950;18.224;2022-11-15T06:36:14;172.50;;;43.50;;
57325;SDS011;43161;50.950;18.224;2022-11-15T06:38:42;290.60;;;59.80;;
57325;SDS011;43161;50.950;18.224;2022-11-15T06:41:09;151.70;;;40.40;;
57325;SDS011;43161;50.950;18.224;2022-11-15T06:43:36;98.10;;;32.90;;
57325;SDS011;43161;50.950;18.224;2022-11-15T06:46:03;81.50;;;31.50;;
57325;SDS011;43161;50.950;18.224;2022-11-15T06:48:30;175.60;;;48.50;;
57325;SDS011;43161;50.950;18.224;2022-11-15T06:50:59;182.10;;;45.10;;
57325;SDS011;43161;50.950;18.224;2022-11-15T06:53:26;90.70;;;31.50;;
57325;SDS011;43161;50.950;18.224;2022-11-15T06:55:52;76.00;;;29.30;;
57325;SDS011;43161;50.950;18.224;2022-11-15T06:58:18;68.10;;;28.10;;
57325;SDS011;43161;50.950;18.224;2022-11-15T07:00:46;67.30;;;28.80;;
57325;SDS011;43161;50.950;18.224;2022-11-15T07:03:11;80.60;;;32.90;;
57325;SDS011;43161;50.950;18.224;2022-11-15T07:05:37;83.50;;;37.10;;
57325;SDS011;43161;50.950;18.224;2022-11-15T07:08:03;87.00;;;37.50;;
57325;SDS011;43161;50.950;18.224;2022-11-15T07:10:28;86.00;;;41.80;;
57325;SDS011;43161;50.950;18.224;2022-11-15T07:12:55;80.30;;;38.60;;
57325;SDS011;43161;50.950;18.224;2022-11-15T07:15:22;72.80;;;35.70;;
57325;SDS011;43161;50.950;18.224;2022-11-15T07:17:49;64.80;;;29.20;;
57325;SDS011;43161;50.950;18.224;2022-11-15T07:20:15;62.40;;;31.40;;
57325;SDS011;43161;50.950;18.224;2022-11-15T07:22:42;58.90;;;30.10;;
57325;SDS011;43161;50.950;18.224;2022-11-15T07:25:08;60.80;;;27.60;;
57325;SDS011;43161;50.950;18.224;2022-11-15T07:27:34;51.80;;;24.80;;
57325;SDS011;43161;50.950;18.224;2022-11-15T07:30:00;50.90;;;24.40;;
57325;SDS011;43161;50.950;18.224;2022-11-15T07:32:26;52.10;;;23.70;;
57325;SDS011;43161;50.950;18.224;2022-11-15T07:34:51;51.00;;;24.60;;
57325;SDS011;43161;50.950;18.224;2022-11-15T07:37:17;49.50;;;24.70;;
57325;SDS011;43161;50.950;18.224;2022-11-15T07:39:43;48.50;;;23.70;;
57325;SDS011;43161;50.950;18.224;2022-11-15T07:42:09;56.50;;;24.90;;
57325;SDS011;43161;50.950;18.224;2022-11-15T07:44:54;53.10;;;25.90;;
57325;SDS011;43161;50.950;18.224;2022-11-15T07:47:19;53.80;;;27.00;;
57325;SDS011;43161;50.950;18.224;2022-11-15T07:49:47;55.90;;;27.50;;
57325;SDS011;43161;50.950;18.224;2022-11-15T07:52:13;49.50;;;24.80;;
57325;SDS011;43161;50.950;18.224;2022-11-15T07:54:39;52.00;;;24.60;;
57325;SDS011;43161;50.950;18.224;2022-11-15T07:57:05;51.40;;;23.80;;
57325;SDS011;43161;50.950;18.224;2022-11-15T07:59:32;50.30;;;24.60;;
57325;SDS011;43161;50.950;18.224;2022-11-15T08:01:58;51.00;;;24.60;;
57325;SDS011;43161;50.950;18.224;2022-11-15T08:04:23;49.70;;;25.10;;
57325;SDS011;43161;50.950;18.224;2022-11-15T08:06:49;47.60;;;24.90;;
57325;SDS011;43161;50.950;18.224;2022-11-15T08:09:14;44.80;;;24.00;;
57325;SDS011;43161;50.950;18.224;2022-11-15T08:11:40;48.00;;;25.10;;
57325;SDS011;43161;50.950;18.224;2022-11-15T08:14:05;47.10;;;24.00;;
57325;SDS011;43161;50.950;18.224;2022-11-15T08:16:31;46.80;;;22.60;;
57325;SDS011;43161;50.950;18.224;2022-11-15T08:18:58;46.50;;;24.60;;
57325;SDS011;43161;50.950;18.224;2022-11-15T08:21:24;47.30;;;23.20;;
57325;SDS011;43161;50.950;18.224;2022-11-15T08:23:49;45.60;;;22.40;;
57325;SDS011;43161;50.950;18.224;2022-11-15T08:26:15;47.00;;;23.70;;
57325;SDS011;43161;50.950;18.224;2022-11-15T08:28:42;49.30;;;24.60;;
57325;SDS011;43161;50.950;18.224;2022-11-15T08:31:12;46.80;;;24.10;;
57325;SDS011;43161;50.950;18.224;2022-11-15T08:33:39;49.10;;;25.10;;
57325;SDS011;43161;50.950;18.224;2022-11-15T08:36:04;47.10;;;23.90;;
57325;SDS011;43161;50.950;18.224;2022-11-15T08:38:31;44.70;;;22.60;;
57325;SDS011;43161;50.950;18.224;2022-11-15T08:41:00;46.90;;;24.30;;
57325;SDS011;43161;50.950;18.224;2022-11-15T08:43:27;44.20;;;24.30;;
57325;SDS011;43161;50.950;18.224;2022-11-15T08:45:55;42.70;;;22.90;;
57325;SDS011;43161;50.950;18.224;2022-11-15T08:48:21;42.70;;;21.30;;
57325;SDS011;43161;50.950;18.224;2022-11-15T08:50:47;44.20;;;22.00;;
57325;SDS011;43161;50.950;18.224;2022-11-15T08:53:13;43.70;;;21.80;;
57325;SDS011;43161;50.950;18.224;2022-11-15T08:55:39;42.70;;;21.80;;
57325;SDS011;43161;50.950;18.224;2022-11-15T08:58:05;39.20;;;22.10;;
57325;SDS011;43161;50.950;18.224;2022-11-15T09:00:32;38.10;;;20.40;;
57325;SDS011;43161;50.950;18.224;2022-11-15T09:02:58;38.50;;;20.00;;
57325;SDS011;43161;50.950;18.224;2022-11-15T09:05:24;34.90;;;18.80;;
57325;SDS011;43161;50.950;18.224;2022-11-15T09:07:53;33.30;;;18.10;;
57325;SDS011;43161;50.950;18.224;2022-11-15T09:10:20;35.10;;;18.50;;
57325;SDS011;43161;50.950;18.224;2022-11-15T09:12:46;34.70;;;18.40;;
57325;SDS011;43161;50.950;18.224;2022-11-15T09:15:13;30.90;;;16.80;;
57325;SDS011;43161;50.950;18.224;2022-11-15T09:17:40;31.00;;;17.50;;
57325;SDS011;43161;50.950;18.224;2022-11-15T09:20:07;31.40;;;17.20;;
57325;SDS011;43161;50.950;18.224;2022-11-15T09:22:34;34.10;;;16.90;;
57325;SDS011;43161;50.950;18.224;2022-11-15T09:25:00;30.20;;;17.90;;
57325;SDS011;43161;50.950;18.224;2022-11-15T09:27:29;30.70;;;17.40;;
57325;SDS011;43161;50.950;18.224;2022-11-15T09:29:55;29.20;;;17.20;;
57325;SDS011;43161;50.950;18.224;2022-11-15T09:32:21;30.90;;;16.60;;
57325;SDS011;43161;50.950;18.224;2022-11-15T09:34:50;29.40;;;17.40;;
57325;SDS011;43161;50.950;18.224;2022-11-15T09:37:15;28.50;;;16.80;;
57325;SDS011;43161;50.950;18.224;2022-11-15T09:39:42;31.10;;;17.00;;
57325;SDS011;43161;50.950;18.224;2022-11-15T09:48:11;28.30;;;16.00;;
57325;SDS011;43161;50.950;18.224;2022-11-15T09:50:48;28.00;;;15.70;;
57325;SDS011;43161;50.950;18.224;2022-11-15T09:56:14;25.90;;;15.60;;
57325;SDS011;43161;50.950;18.224;2022-11-15T10:04:29;26.20;;;15.70;;
57325;SDS011;43161;50.950;18.224;2022-11-15T10:07:01;26.20;;;14.90;;
57325;SDS011;43161;50.950;18.224;2022-11-15T10:12:16;27.00;;;15.10;;
57325;SDS011;43161;50.950;18.224;2022-11-15T10:14:42;25.50;;;14.90;;
57325;SDS011;43161;50.950;18.224;2022-11-15T10:25:36;23.40;;;14.00;;
57325;SDS011;43161;50.950;18.224;2022-11-15T10:30:58;23.50;;;14.40;;
57325;SDS011;43161;50.950;18.224;2022-11-15T10:33:32;24.30;;;14.00;;
57325;SDS011;43161;50.950;18.224;2022-11-15T10:41:18;22.60;;;13.60;;
57325;SDS011;43161;50.950;18.224;2022-11-15T10:43:44;23.80;;;14.10;;
57325;SDS011;43161;50.950;18.224;2022-11-15T10:46:20;24.00;;;13.70;;
57325;SDS011;43161;50.950;18.224;2022-11-15T10:48:47;23.00;;;13.90;;
57325;SDS011;43161;50.950;18.224;2022-11-15T10:53:59;23.80;;;14.00;;
57325;SDS011;43161;50.950;18.224;2022-11-15T10:56:25;24.60;;;14.00;;
57325;SDS011;43161;50.950;18.224;2022-11-15T10:58:55;24.20;;;14.60;;
57325;SDS011;43161;50.950;18.224;2022-11-15T11:01:23;22.90;;;14.10;;
57325;SDS011;43161;50.950;18.224;2022-11-15T11:09:27;22.00;;;13.40;;
57325;SDS011;43161;50.950;18.224;2022-11-15T11:12:01;20.30;;;11.60;;
57325;SDS011;43161;50.950;18.224;2022-11-15T11:14:29;21.80;;;12.30;;
57325;SDS011;43161;50.950;18.224;2022-11-15T11:22:47;20.60;;;12.40;;
57325;SDS011;43161;50.950;18.224;2022-11-15T11:28:42;21.00;;;11.90;;
57325;SDS011;43161;50.950;18.224;2022-11-15T11:45:48;24.30;;;12.20;;
57325;SDS011;43161;50.950;18.224;2022-11-15T11:48:45;18.50;;;11.30;;
57325;SDS011;43161;50.950;18.224;2022-11-15T11:51:49;21.20;;;11.90;;
57325;SDS011;43161;50.950;18.224;2022-11-15T11:54:12;20.90;;;12.10;;
57325;SDS011;43161;50.950;18.224;2022-11-15T11:56:41;21.30;;;11.30;;
57325;SDS011;43161;50.950;18.224;2022-11-15T12:08:04;20.80;;;12.10;;
57325;SDS011;43161;50.950;18.224;2022-11-15T12:10:40;20.50;;;12.00;;
57325;SDS011;43161;50.950;18.224;2022-11-15T12:13:12;21.90;;;12.90;;
57325;SDS011;43161;50.950;18.224;2022-11-15T12:15:45;20.90;;;11.50;;
57325;SDS011;43161;50.950;18.224;2022-11-15T12:18:16;19.40;;;10.60;;
57325;SDS011;43161;50.950;18.224;2022-11-15T12:20:49;22.80;;;12.30;;
57325;SDS011;43161;50.950;18.224;2022-11-15T12:23:20;20.60;;;11.70;;
57325;SDS011;43161;50.950;18.224;2022-11-15T12:25:54;20.30;;;11.20;;
57325;SDS011;43161;50.950;18.224;2022-11-15T12:31:20;20.90;;;11.60;;
57325;SDS011;43161;50.950;18.224;2022-11-15T12:33:55;20.40;;;11.30;;
57325;SDS011;43161;50.950;18.224;2022-11-15T12:41:14;19.00;;;10.70;;
57325;SDS011;43161;50.950;18.224;2022-11-15T12:43:43;20.10;;;12.10;;
57325;SDS011;43161;50.950;18.224;2022-11-15T12:46:18;19.30;;;11.40;;
57325;SDS011;43161;50.950;18.224;2022-11-15T12:51:12;22.80;;;12.10;;
57325;SDS011;43161;50.950;18.224;2022-11-15T12:53:38;26.10;;;13.30;;
57325;SDS011;43161;50.950;18.224;2022-11-15T13:06:46;22.30;;;13.50;;
57325;SDS011;43161;50.950;18.224;2022-11-15T13:14:56;20.70;;;11.50;;
57325;SDS011;43161;50.950;18.224;2022-11-15T13:22:27;26.90;;;12.70;;
57325;SDS011;43161;50.950;18.224;2022-11-15T13:27:41;19.90;;;11.40;;
57325;SDS011;43161;50.950;18.224;2022-11-15T13:30:13;20.40;;;11.40;;
57325;SDS011;43161;50.950;18.224;2022-11-15T13:32:45;23.40;;;11.90;;
57325;SDS011;43161;50.950;18.224;2022-11-15T13:40:33;21.20;;;12.50;;
57325;SDS011;43161;50.950;18.224;2022-11-15T13:48:33;24.40;;;13.10;;
57325;SDS011;43161;50.950;18.224;2022-11-15T13:51:00;23.50;;;12.50;;
57325;SDS011;43161;50.950;18.224;2022-11-15T13:53:27;23.40;;;13.70;;
57325;SDS011;43161;50.950;18.224;2022-11-15T13:55:53;23.50;;;13.60;;
57325;SDS011;43161;50.950;18.224;2022-11-15T13:58:20;24.90;;;14.10;;
57325;SDS011;43161;50.950;18.224;2022-11-15T14:00:45;24.50;;;13.20;;
57325;SDS011;43161;50.950;18.224;2022-11-15T14:05:41;26.50;;;16.00;;
57325;SDS011;43161;50.950;18.224;2022-11-15T14:08:25;24.50;;;14.90;;
57325;SDS011;43161;50.950;18.224;2022-11-15T14:11:05;29.80;;;17.50;;
57325;SDS011;43161;50.950;18.224;2022-11-15T14:13:34;29.40;;;15.90;;
57325;SDS011;43161;50.950;18.224;2022-11-15T14:21:11;32.70;;;18.80;;
57325;SDS011;43161;50.950;18.224;2022-11-15T14:23:37;32.80;;;18.60;;
57325;SDS011;43161;50.950;18.224;2022-11-15T14:26:04;38.00;;;22.00;;
57325;SDS011;43161;50.950;18.224;2022-11-15T14:28:31;42.30;;;24.30;;
57325;SDS011;43161;50.950;18.224;2022-11-15T14:33:36;38.00;;;21.50;;
57325;SDS011;43161;50.950;18.224;2022-11-15T14:36:04;38.60;;;22.30;;
57325;SDS011;43161;50.950;18.224;2022-11-15T14:38:48;48.90;;;24.90;;
57325;SDS011;43161;50.950;18.224;2022-11-15T14:41:22;44.30;;;21.50;;
57325;SDS011;43161;50.950;18.224;2022-11-15T14:43:49;43.30;;;22.30;;
57325;SDS011;43161;50.950;18.224;2022-11-15T14:46:15;45.40;;;22.60;;
57325;SDS011;43161;50.950;18.224;2022-11-15T14:48:41;44.10;;;22.70;;
57325;SDS011;43161;50.950;18.224;2022-11-15T14:51:13;40.60;;;21.20;;
57325;SDS011;43161;50.950;18.224;2022-11-15T14:53:41;44.10;;;22.10;;
57325;SDS011;43161;50.950;18.224;2022-11-15T14:56:07;40.70;;;21.60;;
57325;SDS011;43161;50.950;18.224;2022-11-15T14:58:33;41.60;;;21.00;;
57325;SDS011;43161;50.950;18.224;2022-11-15T15:00:59;41.60;;;21.10;;
57325;SDS011;43161;50.950;18.224;2022-11-15T15:03:25;46.60;;;21.30;;
57325;SDS011;43161;50.950;18.224;2022-11-15T15:05:50;45.20;;;21.40;;
57325;SDS011;43161;50.950;18.224;2022-11-15T15:08:16;43.10;;;21.30;;
57325;SDS011;43161;50.950;18.224;2022-11-15T15:10:42;31.50;;;17.40;;
57325;SDS011;43161;50.950;18.224;2022-11-15T15:13:19;44.30;;;19.90;;
57325;SDS011;43161;50.950;18.224;2022-11-15T15:15:47;40.00;;;18.60;;
57325;SDS011;43161;50.950;18.224;2022-11-15T15:18:13;36.20;;;17.00;;
57325;SDS011;43161;50.950;18.224;2022-11-15T15:20:39;28.30;;;14.80;;
57325;SDS011;43161;50.950;18.224;2022-11-15T15:25:54;32.40;;;15.50;;
57325;SDS011;43161;50.950;18.224;2022-11-15T15:28:20;29.70;;;15.30;;
57325;SDS011;43161;50.950;18.224;2022-11-15T15:30:45;29.70;;;14.60;;
57325;SDS011;43161;50.950;18.224;2022-11-15T15:33:11;30.50;;;17.30;;
57325;SDS011;43161;50.950;18.224;2022-11-15T15:35:37;45.60;;;24.00;;
57325;SDS011;43161;50.950;18.224;2022-11-15T15:38:02;41.70;;;21.20;;
57325;SDS011;43161;50.950;18.224;2022-11-15T15:40:29;99.50;;;36.50;;
57325;SDS011;43161;50.950;18.224;2022-11-15T15:42:56;162.70;;;46.90;;
57325;SDS011;43161;50.950;18.224;2022-11-15T15:45:22;95.20;;;34.10;;
57325;SDS011;43161;50.950;18.224;2022-11-15T15:47:47;82.30;;;35.80;;
57325;SDS011;43161;50.950;18.224;2022-11-15T15:50:17;121.60;;;42.10;;
57325;SDS011;43161;50.950;18.224;2022-11-15T15:52:54;141.30;;;52.90;;
57325;SDS011;43161;50.950;18.224;2022-11-15T15:55:21;91.00;;;39.10;;
57325;SDS011;43161;50.950;18.224;2022-11-15T15:57:47;77.60;;;34.40;;
57325;SDS011;43161;50.950;18.224;2022-11-15T16:00:14;64.10;;;29.90;;
57325;SDS011;43161;50.950;18.224;2022-11-15T16:02:40;61.30;;;28.60;;
57325;SDS011;43161;50.950;18.224;2022-11-15T16:05:06;56.50;;;27.60;;
57325;SDS011;43161;50.950;18.224;2022-11-15T16:07:32;74.20;;;33.60;;
57325;SDS011;43161;50.950;18.224;2022-11-15T16:09:58;73.30;;;33.60;;
57325;SDS011;43161;50.950;18.224;2022-11-15T16:12:29;50.00;;;26.70;;
57325;SDS011;43161;50.950;18.224;2022-11-15T16:14:56;74.50;;;35.80;;
57325;SDS011;43161;50.950;18.224;2022-11-15T16:17:23;254.10;;;84.00;;
57325;SDS011;43161;50.950;18.224;2022-11-15T16:19:50;154.70;;;57.70;;
57325;SDS011;43161;50.950;18.224;2022-11-15T16:22:16;179.80;;;60.90;;
57325;SDS011;43161;50.950;18.224;2022-11-15T16:24:41;230.80;;;77.20;;
57325;SDS011;43161;50.950;18.224;2022-11-15T16:27:25;238.90;;;76.50;;
57325;SDS011;43161;50.950;18.224;2022-11-15T16:29:50;377.30;;;108.80;;
57325;SDS011;43161;50.950;18.224;2022-11-15T16:32:16;240.70;;;75.00;;
57325;SDS011;43161;50.950;18.224;2022-11-15T16:34:42;208.00;;;66.30;;
57325;SDS011;43161;50.950;18.224;2022-11-15T16:37:20;224.40;;;74.40;;
57325;SDS011;43161;50.950;18.224;2022-11-15T16:39:47;139.50;;;51.60;;
57325;SDS011;43161;50.950;18.224;2022-11-15T16:42:13;143.60;;;54.70;;
57325;SDS011;43161;50.950;18.224;2022-11-15T16:44:39;103.70;;;45.70;;
57325;SDS011;43161;50.950;18.224;2022-11-15T16:47:04;88.10;;;38.00;;
57325;SDS011;43161;50.950;18.224;2022-11-15T16:49:30;84.40;;;36.00;;
57325;SDS011;43161;50.950;18.224;2022-11-15T16:51:56;92.50;;;42.90;;
57325;SDS011;43161;50.950;18.224;2022-11-15T16:54:21;263.40;;;91.50;;
57325;SDS011;43161;50.950;18.224;2022-11-15T16:56:47;145.10;;;57.70;;
57325;SDS011;43161;50.950;18.224;2022-11-15T16:59:14;128.20;;;51.60;;
57325;SDS011;43161;50.950;18.224;2022-11-15T17:01:41;127.90;;;54.10;;